Schedule Details


Flight Number: CTN4457
Departure: Brussels National (EBBR) at 20:25
Arrival: Franjo Tudman (LDZA) at 22:15
Route: SPI UL607 PELIX UZ210 LIRSU UZ315 RIDAR UZ738 MUN UM867 VAROB DCT PIKIT DCT ARGOM

Weather Information
EBBR 092320Z 06003KT CAVOK 12/06 Q1026 NOSIG
LDZA 092330Z 24003KT CAVOK 05/00 Q1022 NOSIG
Schedule Frequency

Route Map